createdAt,value
2018-12-10T00:01:23.032Z,96435.97
2018-12-10T00:03:56.574Z,96434.51
2018-12-10T00:06:27.146Z,96443.84
2018-12-10T00:08:58.128Z,96445.42
2018-12-10T00:11:59.111Z,96442.70
2018-12-10T00:14:29.750Z,96453.73
2018-12-10T00:16:59.535Z,96452.52
2018-12-10T00:19:29.423Z,96452.38
2018-12-10T00:21:59.853Z,96455.67
2018-12-10T00:24:29.927Z,96458.06
2018-12-10T00:26:59.606Z,96367.88
2018-12-10T00:29:29.311Z,96464.78
2018-12-10T00:31:57.866Z,96455.48
2018-12-10T00:34:26.870Z,96470.77
2018-12-10T00:36:56.734Z,96474.52
2018-12-10T00:39:26.550Z,96473.73
2018-12-10T00:41:55.098Z,96492.28
2018-12-10T00:44:24.450Z,96491.80
2018-12-10T00:46:53.215Z,96491.34
2018-12-10T00:49:22.069Z,96489.25
2018-12-10T00:51:51.034Z,96503.98
2018-12-10T00:54:20.375Z,96502.48
2018-12-10T00:56:49.218Z,96496.36
2018-12-10T00:59:18.517Z,96508.44
2018-12-10T01:01:48.962Z,96508.42
2018-12-10T01:04:18.388Z,96509.31
2018-12-10T01:06:47.684Z,96519.10
2018-12-10T01:09:16.512Z,96518.98
2018-12-10T01:11:47.144Z,96537.72
2018-12-10T01:14:17.276Z,96530.52
2018-12-10T01:16:45.949Z,96539.34
2018-12-10T01:19:16.302Z,96537.19
2018-12-10T01:21:47.304Z,96544.73
2018-12-10T01:24:17.931Z,96533.48
2018-12-10T01:26:48.103Z,96546.64
2018-12-10T01:29:17.250Z,96553.91
2018-12-10T01:31:46.710Z,96555.45
2018-12-10T01:34:16.102Z,96557.62
2018-12-10T01:36:47.796Z,96558.02
2018-12-10T01:39:17.838Z,96558.67
2018-12-10T01:41:48.509Z,96562.24
2018-12-10T01:44:17.328Z,96568.34
2018-12-10T01:46:46.503Z,96571.80
2018-12-10T01:49:18.150Z,96579.32
2018-12-10T01:51:51.701Z,96575.20
2018-12-10T01:54:22.223Z,96577.66
2018-12-10T01:56:51.490Z,96577.37
2018-12-10T01:59:21.386Z,96587.87
2018-12-10T02:01:52.806Z,96582.56
2018-12-10T02:04:24.526Z,96577.88
2018-12-10T02:06:53.145Z,96588.33
2018-12-10T02:09:24.014Z,96580.39
2018-12-10T02:11:53.248Z,96588.19
2018-12-10T02:14:23.612Z,96601.33
2018-12-10T02:16:53.414Z,96605.28
2018-12-10T02:19:23.741Z,96584.69
2018-12-10T02:21:52.915Z,96595.60
2018-12-10T02:24:22.151Z,96595.66
2018-12-10T02:26:54.549Z,96600.09
2018-12-10T02:29:25.087Z,96606.17
2018-12-10T02:31:55.295Z,96604.03
2018-12-10T02:34:25.247Z,96616.44
2018-12-10T02:36:55.176Z,96604.67
2018-12-10T02:39:23.696Z,96606.27
2018-12-10T02:41:53.836Z,96623.03
2018-12-10T02:44:22.990Z,96622.58
2018-12-10T02:46:52.463Z,96632.44
2018-12-10T02:49:21.536Z,96637.48
2018-12-10T02:51:50.934Z,96643.69
2018-12-10T02:54:20.362Z,96639.98
2018-12-10T02:56:49.944Z,96637.28
2018-12-10T02:59:18.443Z,96644.88
2018-12-10T03:01:47.380Z,96640.76
2018-12-10T03:04:19.894Z,96644.57
2018-12-10T03:06:48.946Z,96645.55
2018-12-10T03:09:17.692Z,96650.03
2018-12-10T03:11:47.011Z,96649.41
2018-12-10T03:14:17.212Z,96647.92
2018-12-10T03:16:47.881Z,96657.17
2018-12-10T03:19:17.975Z,96647.00
2018-12-10T03:21:48.663Z,96659.23
2018-12-10T03:24:19.370Z,96660.84
2018-12-10T03:26:48.030Z,96663.02
2018-12-10T03:29:18.861Z,96670.26
2018-12-10T03:31:48.440Z,96681.31
2018-12-10T03:34:17.242Z,96691.48
2018-12-10T03:36:46.255Z,96671.57
2018-12-10T03:39:16.198Z,96683.87
2018-12-10T03:41:46.132Z,96686.50
2018-12-10T03:44:14.885Z,96677.47
2018-12-10T03:46:43.589Z,96686.53
2018-12-10T03:49:13.586Z,96682.03
2018-12-10T03:51:42.476Z,96690.77
2018-12-10T03:54:11.777Z,96685.58
2018-12-10T03:56:42.122Z,96692.59
2018-12-10T03:59:11.859Z,96701.85
2018-12-10T04:01:41.933Z,96708.58
2018-12-10T04:04:12.026Z,96706.23
2018-12-10T04:06:42.077Z,96707.06
2018-12-10T04:09:10.647Z,96715.17
2018-12-10T04:11:40.771Z,96707.23
2018-12-10T04:14:11.130Z,96718.55
2018-12-10T04:16:40.621Z,96715.53
2018-12-10T04:19:09.272Z,96722.06
2018-12-10T04:21:37.888Z,96721.73
2018-12-10T04:24:08.918Z,96727.34
2018-12-10T04:26:40.567Z,96711.33
2018-12-10T04:29:10.586Z,96723.08
2018-12-10T04:31:39.701Z,96712.57
2018-12-10T04:34:09.343Z,96725.08
2018-12-10T04:36:38.596Z,96725.34
2018-12-10T04:39:09.106Z,96730.48
2018-12-10T04:41:38.405Z,96735.66
2018-12-10T04:44:07.824Z,96730.30
2018-12-10T04:46:38.778Z,96745.47
2018-12-10T04:49:07.430Z,96744.05
2018-12-10T04:51:37.460Z,96747.16
2018-12-10T04:54:06.543Z,96741.23
2018-12-10T04:56:36.135Z,96399.27
2018-12-10T04:59:05.310Z,96749.66
2018-12-10T05:01:33.847Z,96756.77
2018-12-10T05:04:03.761Z,96758.88
2018-12-10T05:06:32.646Z,96756.62
2018-12-10T05:09:02.584Z,96761.16
2018-12-10T05:11:33.031Z,96776.98
2018-12-10T05:14:02.164Z,96785.95
2018-12-10T05:16:32.139Z,96343.98
2018-12-10T05:19:02.005Z,96802.18
2018-12-10T05:21:32.298Z,96805.02
2018-12-10T05:24:01.113Z,96800.34
2018-12-10T05:26:31.367Z,96816.17
2018-12-10T05:29:02.976Z,96815.30
2018-12-10T05:31:33.525Z,96818.45
2018-12-10T05:34:03.680Z,96815.50
2018-12-10T05:36:35.162Z,96819.28
2018-12-10T05:39:05.361Z,96803.25
2018-12-10T05:41:35.012Z,96791.84
2018-12-10T05:44:05.402Z,96799.14
2018-12-10T05:46:34.905Z,96798.83
2018-12-10T05:49:06.088Z,96801.44
2018-12-10T05:51:36.802Z,96800.58
2018-12-10T05:54:07.039Z,96800.17
2018-12-10T05:56:37.102Z,96808.05
2018-12-10T05:59:06.657Z,96808.78
2018-12-10T06:01:36.010Z,96810.41
2018-12-10T06:04:05.252Z,96808.63
2018-12-10T06:06:35.506Z,96818.66
2018-12-10T06:09:07.009Z,96818.02
2018-12-10T06:11:36.830Z,96820.15
2018-12-10T06:14:07.038Z,96820.70
2018-12-10T06:16:36.296Z,96825.56
2018-12-10T06:19:05.450Z,96828.91
2018-12-10T06:21:34.733Z,96834.63
2018-12-10T06:24:03.844Z,96834.59
2018-12-10T06:26:33.874Z,96837.50
2018-12-10T06:29:05.994Z,96602.86
2018-12-10T06:31:35.503Z,96842.74
2018-12-10T06:34:05.639Z,96851.02
2018-12-10T06:36:38.142Z,96847.61
2018-12-10T06:39:08.325Z,96958.51
2018-12-10T06:41:38.247Z,96848.22
2018-12-10T06:44:07.563Z,96852.33
2018-12-10T06:46:39.088Z,96856.81
2018-12-10T06:49:08.925Z,96857.14
2018-12-10T06:51:39.986Z,96854.63
2018-12-10T06:54:11.093Z,96861.09
2018-12-10T06:56:40.354Z,96869.97
2018-12-10T06:59:09.182Z,96864.87
2018-12-10T07:01:41.160Z,96872.09
2018-12-10T07:04:11.556Z,96875.37
2018-12-10T07:06:40.552Z,96880.25
2018-12-10T07:09:11.349Z,96878.63
2018-12-10T07:11:40.634Z,96879.66
2018-12-10T07:14:12.610Z,96865.75
2018-12-10T07:16:42.111Z,96869.13
2018-12-10T07:19:11.801Z,96881.10
2018-12-10T07:21:40.374Z,96886.56
2018-12-10T07:24:09.377Z,96886.05
2018-12-10T07:26:38.622Z,96885.25
2018-12-10T07:29:09.862Z,96898.14
2018-12-10T07:31:39.538Z,96896.53
2018-12-10T07:34:09.620Z,96901.16
2018-12-10T07:36:38.355Z,96903.58
2018-12-10T07:39:08.193Z,96905.33
2018-12-10T07:41:37.797Z,96908.52
2018-12-10T07:44:07.598Z,96909.95
2018-12-10T07:48:06.008Z,96917.18
2018-12-10T07:50:36.604Z,96920.48
2018-12-10T07:53:09.484Z,96925.67
2018-12-10T07:55:38.694Z,96924.91
2018-12-10T07:58:08.901Z,96925.94
2018-12-10T08:00:38.369Z,96926.52
2018-12-10T08:03:08.283Z,96929.63
2018-12-10T08:05:37.862Z,96975.70
2018-12-10T08:08:07.359Z,96936.16
2018-12-10T08:10:36.218Z,96925.42
2018-12-10T08:13:05.827Z,96940.63
2018-12-10T08:15:34.742Z,96935.12
2018-12-10T08:18:06.333Z,96935.69
2018-12-10T08:20:35.747Z,96938.24
2018-12-10T08:23:04.254Z,96933.44
2018-12-10T08:25:34.323Z,96933.36
2018-12-10T08:28:03.657Z,96943.82
2018-12-10T08:30:33.691Z,96933.09
2018-12-10T08:33:23.273Z,96951.42
2018-12-10T08:35:51.829Z,96951.41
2018-12-10T08:38:21.695Z,96960.02
2018-12-10T08:40:51.833Z,96966.47
2018-12-10T08:43:21.164Z,96958.91
2018-12-10T08:45:50.611Z,96965.95
2018-12-10T08:48:19.537Z,96968.77
2018-12-10T08:50:49.013Z,96977.20
2018-12-10T08:53:20.379Z,96968.22
2018-12-10T08:55:56.134Z,96973.00
2018-12-10T08:58:26.205Z,97025.56
2018-12-10T09:00:56.383Z,96969.52
2018-12-10T09:03:25.616Z,96975.09
2018-12-10T09:05:54.716Z,96976.66
2018-12-10T09:08:24.057Z,96978.92
2018-12-10T09:11:02.566Z,96979.59
2018-12-10T09:13:31.614Z,96979.48
2018-12-10T09:16:02.733Z,96984.84
2018-12-10T09:18:32.192Z,96984.64
2018-12-10T09:21:02.072Z,96980.90
2018-12-10T09:23:33.074Z,96983.53
2018-12-10T09:26:04.513Z,96980.64
2018-12-10T09:28:35.131Z,96983.02
2018-12-10T09:31:08.599Z,96983.90
2018-12-10T09:33:38.051Z,96989.94
2018-12-10T09:36:08.699Z,96994.97
2018-12-10T09:38:38.491Z,96997.93
2018-12-10T09:41:09.958Z,97007.48
2018-12-10T09:43:39.906Z,96997.37
2018-12-10T09:46:08.742Z,97007.64
2018-12-10T09:48:40.966Z,97018.50
2018-12-10T09:51:11.158Z,97020.50
2018-12-10T09:53:41.668Z,97017.84
2018-12-10T09:56:11.876Z,97012.55
2018-12-10T09:58:41.669Z,97037.21
2018-12-10T10:01:11.460Z,97007.25
2018-12-10T10:03:42.117Z,97023.75
2018-12-10T10:06:11.359Z,96924.94
2018-12-10T10:08:39.978Z,97020.53
2018-12-10T10:11:09.949Z,97011.33
2018-12-10T10:13:40.227Z,97016.59
2018-12-10T10:16:10.729Z,97014.56
2018-12-10T10:18:40.489Z,97020.98
2018-12-10T10:21:11.602Z,97018.34
2018-12-10T10:23:42.408Z,97069.02
2018-12-10T10:26:13.053Z,97017.64
2018-12-10T10:28:43.591Z,97023.02
2018-12-10T10:31:14.249Z,97033.97
2018-12-10T10:33:44.812Z,97023.75
2018-12-10T10:36:13.746Z,97022.21
2018-12-10T10:38:43.116Z,97030.42
2018-12-10T10:41:13.394Z,97028.87
2018-12-10T10:43:42.807Z,97015.23
2018-12-10T10:46:12.010Z,97017.81
2018-12-10T10:48:42.197Z,97018.50
2018-12-10T10:51:11.991Z,97023.50
2018-12-10T10:53:40.794Z,97022.29
2018-12-10T10:56:10.394Z,97032.66
2018-12-10T10:58:39.261Z,97025.86
2018-12-10T11:01:18.428Z,97017.62
2018-12-10T11:03:48.492Z,97019.52
2018-12-10T11:06:19.059Z,97016.10
2018-12-10T11:08:49.569Z,97019.03
2018-12-10T11:11:19.814Z,97025.86
2018-12-10T11:13:59.892Z,97026.34
2018-12-10T11:16:28.698Z,97021.59
2018-12-10T11:18:58.594Z,97020.42
2018-12-10T11:21:29.481Z,97013.70
2018-12-10T11:23:59.509Z,97032.72
2018-12-10T11:26:30.581Z,97020.77
2018-12-10T11:29:00.021Z,97017.05
2018-12-10T11:31:33.186Z,97022.94
2018-12-10T11:34:03.742Z,97029.42
2018-12-10T11:36:32.848Z,97018.92
2018-12-10T11:39:01.414Z,97018.50
2018-12-10T11:41:32.495Z,97004.31
2018-12-10T11:44:02.633Z,97005.06
2018-12-10T11:46:31.690Z,96905.86
2018-12-10T11:49:01.442Z,96996.67
2018-12-10T11:51:43.764Z,96993.88
2018-12-10T11:54:14.423Z,96991.63
2018-12-10T11:56:44.319Z,96990.77
2018-12-10T11:59:13.978Z,96625.23
2018-12-10T12:01:43.354Z,96987.45
2018-12-10T12:04:12.039Z,96980.25
2018-12-10T12:06:43.027Z,96979.16
2018-12-10T12:09:13.767Z,96974.20
2018-12-10T12:11:42.829Z,96975.00
2018-12-10T12:14:14.238Z,96981.99
2018-12-10T12:16:44.290Z,96973.34
2018-12-10T12:19:15.263Z,96963.34
2018-12-10T12:21:45.444Z,96970.41
2018-12-10T12:24:15.504Z,96959.91
2018-12-10T12:26:45.627Z,96968.05
2018-12-10T12:29:17.553Z,96964.12
2018-12-10T12:31:48.346Z,96968.87
2018-12-10T12:34:17.680Z,96962.88
2018-12-10T12:36:47.339Z,96964.70
2018-12-10T12:39:18.194Z,96970.62
2018-12-10T12:41:48.145Z,96973.56
2018-12-10T12:44:17.113Z,96974.95
2018-12-10T12:46:48.974Z,97056.22
2018-12-10T12:49:19.656Z,96964.92
2018-12-10T12:51:48.754Z,96957.30
2018-12-10T12:54:20.224Z,96959.84
2018-12-10T12:56:48.958Z,96955.83
2018-12-10T12:59:19.851Z,96950.82
2018-12-10T13:01:51.420Z,96518.20
2018-12-10T13:04:21.682Z,96946.94
2018-12-10T13:06:51.269Z,96948.29
2018-12-10T13:09:21.927Z,96938.60
2018-12-10T13:11:52.450Z,96939.27
2018-12-10T13:14:21.175Z,96940.31
2018-12-10T13:16:49.959Z,96943.63
2018-12-10T13:19:19.850Z,96933.16
2018-12-10T13:21:49.161Z,96937.06
2018-12-10T13:24:18.075Z,96926.73
2018-12-10T13:26:48.975Z,96930.78
2018-12-10T13:29:20.207Z,96933.34
2018-12-10T13:31:49.169Z,96928.56
2018-12-10T13:34:18.150Z,96941.31
2018-12-10T13:36:49.431Z,96939.72
2018-12-10T13:39:18.755Z,96936.21
2018-12-10T13:41:50.329Z,96929.48
2018-12-10T13:44:19.755Z,96932.06
2018-12-10T13:46:49.834Z,96922.51
2018-12-10T13:49:20.997Z,96921.97
2018-12-10T13:51:51.140Z,96923.80
2018-12-10T13:54:19.884Z,96925.06
2018-12-10T13:56:48.831Z,96923.52
2018-12-10T13:59:18.390Z,96921.08
2018-12-10T14:01:49.236Z,96926.76
2018-12-10T14:04:23.972Z,96933.34
2018-12-10T14:06:53.192Z,96925.98
2018-12-10T14:09:23.990Z,96917.70
2018-12-10T14:11:53.275Z,96919.81
2018-12-10T14:14:24.454Z,96918.86
2018-12-10T14:16:56.671Z,96924.47
2018-12-10T14:19:36.090Z,96919.96
2018-12-10T14:22:05.214Z,96912.27
2018-12-10T14:24:34.159Z,96908.26
2018-12-10T14:27:04.545Z,96909.58
2018-12-10T14:29:35.193Z,96920.01
2018-12-10T14:32:06.018Z,96908.59
2018-12-10T14:34:36.006Z,96903.88
2018-12-10T14:37:06.408Z,96909.73
2018-12-10T14:39:37.802Z,96917.83
2018-12-10T14:42:13.418Z,96912.52
2018-12-10T14:44:42.159Z,96912.32
2018-12-10T14:47:15.027Z,96918.86
2018-12-10T14:49:44.205Z,96909.03
2018-12-10T14:52:14.039Z,96921.33
2018-12-10T14:54:44.779Z,96953.30
2018-12-10T14:57:15.386Z,96908.05
2018-12-10T14:59:46.420Z,96915.23
2018-12-10T15:02:18.312Z,96919.58
2018-12-10T15:04:51.828Z,96932.53
2018-12-10T15:07:22.647Z,96937.65
2018-12-10T15:09:52.662Z,96944.68
2018-12-10T15:12:22.679Z,96943.05
2018-12-10T15:14:51.274Z,96935.91
2018-12-10T15:17:20.263Z,96930.78
2018-12-10T15:19:49.810Z,96928.66
2018-12-10T15:22:19.124Z,96920.48
2018-12-10T15:24:49.251Z,96915.86
2018-12-10T15:27:18.991Z,96924.77
2018-12-10T15:29:50.027Z,96918.48
2018-12-10T15:32:21.296Z,96950.48
2018-12-10T15:34:50.260Z,96916.16
2018-12-10T15:37:21.561Z,96916.38
2018-12-10T15:39:51.467Z,96908.59
2018-12-10T15:42:21.543Z,96916.42
2018-12-10T15:44:50.576Z,96905.77
2018-12-10T15:47:19.755Z,96914.67
2018-12-10T15:49:50.702Z,96912.89
2018-12-10T15:52:19.883Z,96912.42
2018-12-10T15:54:49.887Z,96917.41
2018-12-10T15:57:20.079Z,96917.67
2018-12-10T15:59:50.929Z,96913.25
2018-12-10T16:02:21.182Z,96910.03
2018-12-10T16:04:50.325Z,96916.58
2018-12-10T16:07:20.532Z,96929.34
2018-12-10T16:09:49.346Z,96932.72
2018-12-10T16:12:23.561Z,96929.68
2018-12-10T16:14:54.321Z,96931.25
2018-12-10T16:17:25.523Z,96918.39
2018-12-10T16:19:55.967Z,96926.49
2018-12-10T16:22:26.166Z,96922.63
2018-12-10T16:24:55.618Z,96927.95
2018-12-10T16:27:26.417Z,96924.84
2018-12-10T16:29:55.301Z,96923.23
2018-12-10T16:32:23.887Z,96924.23
2018-12-10T16:34:55.387Z,96923.23
2018-12-10T16:37:25.046Z,96925.17
2018-12-10T16:39:54.366Z,96923.23
2018-12-10T16:42:30.082Z,96927.95
2018-12-10T16:44:59.280Z,96918.23
2018-12-10T16:47:29.545Z,96919.95
2018-12-10T16:49:58.214Z,96922.53
2018-12-10T16:52:27.908Z,96466.27
2018-12-10T16:54:59.750Z,96922.33
2018-12-10T16:57:29.054Z,96924.62
2018-12-10T17:02:39.545Z,96921.02
2018-12-10T17:05:12.118Z,96913.89
2018-12-10T17:07:43.391Z,96910.22
2018-12-10T17:10:13.171Z,96914.45
2018-12-10T17:12:42.830Z,96913.02
2018-12-10T17:15:13.989Z,96918.20
2018-12-10T17:17:43.710Z,96930.59
2018-12-10T17:20:13.287Z,96918.27
2018-12-10T17:22:41.973Z,96924.77
2018-12-10T17:25:11.530Z,96922.48
2018-12-10T17:27:41.475Z,96913.82
2018-12-10T17:30:11.118Z,96914.27
2018-12-10T17:32:40.332Z,96914.19
2018-12-10T17:35:13.226Z,96919.28
2018-12-10T17:37:42.167Z,96928.82
2018-12-10T17:40:13.070Z,96928.40
2018-12-10T17:42:43.009Z,96922.70
2018-12-10T17:46:42.651Z,96922.17
2018-12-10T17:49:13.252Z,96912.44
2018-12-10T17:51:42.110Z,96921.80
2018-12-10T17:54:11.251Z,96926.23
2018-12-10T17:56:41.743Z,96913.89
2018-12-10T17:59:12.360Z,96906.52
2018-12-10T18:01:40.893Z,96918.98
2018-12-10T18:04:10.455Z,96916.42
2018-12-10T18:06:39.472Z,96924.69
2018-12-10T18:09:08.629Z,96913.89
2018-12-10T18:11:38.158Z,96917.10
2018-12-10T18:14:08.736Z,96913.30
2018-12-10T18:16:38.578Z,96919.86
2018-12-10T18:19:08.375Z,96910.82
2018-12-10T18:21:45.568Z,96918.97
2018-12-10T18:24:15.050Z,96923.94
2018-12-10T18:26:44.675Z,96925.86
2018-12-10T18:29:14.614Z,96926.86
2018-12-10T18:31:44.117Z,96846.08
2018-12-10T18:34:12.833Z,96920.75
2018-12-10T18:36:43.589Z,96920.97
2018-12-10T18:39:12.966Z,96916.59
2018-12-10T18:41:42.413Z,96905.98
2018-12-10T18:44:11.453Z,96904.41
2018-12-10T18:46:41.186Z,96901.48
2018-12-10T18:49:10.546Z,96914.45
2018-12-10T18:51:39.625Z,96909.73
2018-12-10T18:54:09.439Z,96917.03
2018-12-10T18:56:39.428Z,96920.94
2018-12-10T18:59:10.917Z,96917.53
2018-12-10T19:01:41.534Z,96925.97
2018-12-10T19:04:18.117Z,96931.87
2018-12-10T19:06:47.692Z,96973.77
2018-12-10T19:09:16.787Z,97003.22
2018-12-10T19:11:47.701Z,97010.20
2018-12-10T19:14:19.171Z,97003.11
2018-12-10T19:16:48.797Z,97018.70
2018-12-10T19:19:17.292Z,97010.72
2018-12-10T19:21:46.043Z,97009.98
2018-12-10T19:24:14.920Z,97007.48
2018-12-10T19:26:45.870Z,97003.84
2018-12-10T19:29:16.287Z,97008.66
2018-12-10T19:31:45.628Z,97008.48
2018-12-10T19:34:15.955Z,97008.16
2018-12-10T19:36:47.197Z,97013.99
2018-12-10T19:39:17.302Z,97016.09
2018-12-10T19:41:48.367Z,97025.45
2018-12-10T19:44:21.443Z,97025.89
2018-12-10T19:46:50.539Z,97024.92
2018-12-10T19:49:20.246Z,97006.42
2018-12-10T19:51:49.543Z,96999.17
2018-12-10T19:54:19.785Z,97005.14
2018-12-10T19:56:49.364Z,97010.23
2018-12-10T19:59:18.894Z,97010.05
2018-12-10T20:01:47.815Z,97013.81
2018-12-10T20:04:17.087Z,97011.48
2018-12-10T20:06:51.457Z,97027.54
2018-12-10T20:09:20.021Z,97030.95
2018-12-10T20:11:50.727Z,97024.97
2018-12-10T20:14:20.325Z,97022.42
2018-12-10T20:16:52.231Z,97017.80
2018-12-10T20:19:37.395Z,97022.57
2018-12-10T20:22:07.341Z,97024.45
2018-12-10T20:24:36.690Z,97017.41
2018-12-10T20:27:09.075Z,97017.11
2018-12-10T20:29:44.629Z,97017.09
2018-12-10T20:32:15.994Z,97025.72
2018-12-10T20:34:45.740Z,97027.88
2018-12-10T20:37:15.427Z,97022.85
2018-12-10T20:39:44.281Z,97025.36
2018-12-10T20:42:13.950Z,97029.19
2018-12-10T20:44:44.600Z,97072.33
2018-12-10T20:47:13.955Z,97036.37
2018-12-10T20:49:42.978Z,97035.79
2018-12-10T20:52:13.285Z,97037.37
2018-12-10T20:54:43.699Z,97038.09
2018-12-10T20:57:13.252Z,97035.16
2018-12-10T20:59:43.436Z,97047.57
2018-12-10T21:02:13.271Z,97046.16
2018-12-10T21:04:42.611Z,96955.66
2018-12-10T21:07:11.402Z,97052.02
2018-12-10T21:09:41.486Z,97056.23
2018-12-10T21:12:12.051Z,97061.62
2018-12-10T21:14:40.591Z,97062.44
2018-12-10T21:17:11.226Z,97075.84
2018-12-10T21:19:40.917Z,97069.31
2018-12-10T21:22:10.316Z,97068.84
2018-12-10T21:24:40.834Z,97066.05
2018-12-10T21:27:11.459Z,97074.32
2018-12-10T21:29:42.254Z,97090.50
2018-12-10T21:32:11.018Z,97079.95
2018-12-10T21:34:40.658Z,97084.59
2018-12-10T21:37:10.504Z,97075.78
2018-12-10T21:39:40.455Z,97067.58
2018-12-10T21:42:11.838Z,97072.95
2018-12-10T21:44:41.979Z,97072.00
2018-12-10T21:47:12.028Z,97059.25
2018-12-10T21:49:40.716Z,97065.64
2018-12-10T21:52:09.550Z,97063.34
2018-12-10T21:54:38.691Z,97067.56
2018-12-10T21:57:07.243Z,97073.13
2018-12-10T21:59:36.324Z,97063.34
2018-12-10T22:02:05.883Z,97060.80
2018-12-10T22:04:36.211Z,97065.56
2018-12-10T22:07:06.158Z,97059.97
2018-12-10T22:09:35.512Z,97062.59
2018-12-10T22:12:04.288Z,97069.60
2018-12-10T22:14:34.304Z,97070.75
2018-12-10T22:17:05.411Z,97069.60
2018-12-10T22:19:36.932Z,97067.53
2018-12-10T22:22:05.775Z,97069.80
2018-12-10T22:24:37.923Z,97069.57
2018-12-10T22:27:08.199Z,97074.63
2018-12-10T22:29:36.894Z,97080.38
2018-12-10T22:32:06.447Z,97074.56
2018-12-10T22:34:35.658Z,97067.77
2018-12-10T22:37:05.624Z,97071.95
2018-12-10T22:39:35.884Z,97069.11
2018-12-10T22:42:09.164Z,97065.56
2018-12-10T22:44:37.976Z,97072.55
2018-12-10T22:47:07.186Z,97073.34
2018-12-10T22:56:23.646Z,97070.27
2018-12-10T22:58:52.506Z,97061.24
2018-12-10T23:01:23.771Z,97062.75
2018-12-10T23:03:52.291Z,97062.07
2018-12-10T23:06:22.310Z,97056.05
2018-12-10T23:08:51.410Z,97063.66
2018-12-10T23:11:23.414Z,97062.62
2018-12-10T23:13:52.093Z,97060.92
2018-12-10T23:16:20.594Z,97055.73
2018-12-10T23:18:50.271Z,97053.20
2018-12-10T23:21:20.695Z,97055.93
2018-12-10T23:23:49.824Z,97053.68
2018-12-10T23:26:21.883Z,97051.67
2018-12-10T23:28:51.922Z,97054.46
2018-12-10T23:31:22.142Z,97046.34
2018-12-10T23:33:51.111Z,97046.25
2018-12-10T23:36:20.897Z,97040.88
2018-12-10T23:38:51.084Z,97033.02
2018-12-10T23:41:20.174Z,97042.64
2018-12-10T23:43:49.472Z,97035.41
2018-12-10T23:46:19.285Z,97038.22
2018-12-10T23:48:48.538Z,97040.44
2018-12-10T23:51:18.394Z,97039.86
2018-12-10T23:53:50.571Z,97042.14
2018-12-10T23:56:19.709Z,97038.67
2018-12-10T23:58:49.677Z,97037.61
